Hao Rui 6 — T3HY2 — position and weather

sailwx.info

Track history (hours):
 
Tides and Currents Weather Stations Pressure Air Temp Water Temp Dewpoint Dewpoint Depression Visibility Wind Speed Wind Dir Waves Ship Positions

Hao Rui 6

Last reported at 2017-Oct-21 16:17 UTC. Time now 2017-Oct-22 15:30 UTC.
Position N 22°17' E 114°57'.

Length 88 m; draft 4.7 m.

Type: Cargo ship. MMSI: 529625000.

Date/timePositionNaut miles runAvg speedWind from/ knotsBaromVisibWave heightAir tempDewpointWater temp
2017-Oct-21 16:17N 22°17' E 114°57'4 8.3
2017-Oct-21 15:51N 22°15' E 114°53'3 8.2
2017-Oct-21 15:30N 22°14' E 114°50'4 8.1
2017-Oct-21 15:00N 22°13' E 114°46'5 7.8
2017-Oct-21 14:17N 22°11' E 114°41'10 7.7
2017-Oct-21 13:00N 22°07' E 114°31'225 7.3
2017-Oct-20 06:07N 21°03' E 110°39'110.2
2017-Oct-20 06:00N 21°03' E 110°38'5 9.3
2017-Oct-20 05:30N 21°05' E 110°33'5 9.4
2017-Oct-20 04:59N 21°05' E 110°28'5 9.7
2017-Oct-20 04:30N 21°08' E 110°25'3 0.7
2017-Oct-20 00:34N 21°11' E 110°24'0 0.0
2017-Oct-19 23:28N 21°11' E 110°24'0 0.0
2017-Oct-19 22:58N 21°11' E 110°24'0 0.0
2017-Oct-19 21:01N 21°11' E 110°24'0 0.0
2017-Oct-19 20:43N 21°11' E 110°24'0 0.0
2017-Oct-19 20:22N 21°11' E 110°24'0 0.0
2017-Oct-19 19:58N 21°11' E 110°24'0 0.0
2017-Oct-19 19:25N 21°11' E 110°24'0 0.0
2017-Oct-19 18:58N 21°11' E 110°24'0 0.0
2017-Oct-19 17:10N 21°11' E 110°24'0 0.0
2017-Oct-19 16:46N 21°11' E 110°24'0 0.0
2017-Oct-19 16:16N 21°11' E 110°24'0 0.0
2017-Oct-19 15:52N 21°11' E 110°24'0 0.0
2017-Oct-19 00:49N 21°11' E 110°24'0 0.2
2017-Oct-19 00:30N 21°11' E 110°24'1 2.6
2017-Oct-19 00:00N 21°09' E 110°25'5 9.1
2017-Oct-18 23:30N 21°05' E 110°27'3 6.0
2017-Oct-18 22:58N 21°05' E 110°30'1 0.4
2017-Oct-18 21:36N 21°06' E 110°31'0 0.0
2017-Oct-18 20:51N 21°06' E 110°31'0 0.1
2017-Oct-18 19:53N 21°06' E 110°31'0 0.0
2017-Oct-18 19:12N 21°06' E 110°31'0 0.0
2017-Oct-18 19:00N 21°06' E 110°31'0 0.0
2017-Oct-18 18:30N 21°06' E 110°31'0 0.0
2017-Oct-18 18:00N 21°06' E 110°31'0 0.0
2017-Oct-18 17:30N 21°06' E 110°31'0 0.0
2017-Oct-18 17:00N 21°06' E 110°31'0 0.0
2017-Oct-18 16:27N 21°06' E 110°31'0 0.0
2017-Oct-18 15:57N 21°06' E 110°31'0 0.0
2017-Oct-18 15:30N 21°06' E 110°31'0 0.0
2017-Oct-18 15:00N 21°06' E 110°31'0 0.1
2017-Oct-18 13:48N 21°06' E 110°31'0 0.0
2017-Oct-18 13:27N 21°06' E 110°31'0 0.0
2017-Oct-18 13:00N 21°06' E 110°31'0 0.0
2017-Oct-18 12:30N 21°06' E 110°31'0 0.0
2017-Oct-18 00:03N 21°06' E 110°31'0 0.0
2017-Oct-18 00:00N 21°06' E 110°31'0 0.0
2017-Oct-17 23:30N 21°06' E 110°31'0 0.0
2017-Oct-17 23:00N 21°06' E 110°31'0 0.0
2017-Oct-17 21:36N 21°06' E 110°31'0 0.1
2017-Oct-17 21:09N 21°06' E 110°31'0 0.1
2017-Oct-17 20:42N 21°06' E 110°31'0 0.0
2017-Oct-17 18:27N 21°06' E 110°31'0 0.1
2017-Oct-17 18:00N 21°06' E 110°31'0 0.0
2017-Oct-17 17:30N 21°06' E 110°31'0 0.0
2017-Oct-17 16:54N 21°06' E 110°31'0 0.0
2017-Oct-17 16:30N 21°06' E 110°31'0 0.0
2017-Oct-17 16:00N 21°06' E 110°31'0 0.0
2017-Oct-17 15:12N 21°06' E 110°31'0 0.0
2017-Oct-17 14:54N 21°06' E 110°31'0 0.0
2017-Oct-17 10:39N 21°06' E 110°31'0 0.0
2017-Oct-17 10:24N 21°06' E 110°31'0 0.0
2017-Oct-17 06:18N 21°06' E 110°31'0 0.0
2017-Oct-17 04:48N 21°06' E 110°31'0 0.0
2017-Oct-17 04:30N 21°06' E 110°31'0 0.0
2017-Oct-17 03:57N 21°06' E 110°31'0 0.0
2017-Oct-17 03:12N 21°06' E 110°31'0 0.0
2017-Oct-17 03:00N 21°06' E 110°31'0 0.0
2017-Oct-17 02:30N 21°06' E 110°31'0 0.0
2017-Oct-17 02:00N 21°06' E 110°31'0 0.0
2017-Oct-17 01:30N 21°06' E 110°31'0 0.1
2017-Oct-17 01:00N 21°06' E 110°31'0 0.0
2017-Oct-17 00:30N 21°06' E 110°31'0 0.0
2017-Oct-17 00:00N 21°06' E 110°31'0 0.0
2017-Oct-16 23:30N 21°06' E 110°31'0 0.0
2017-Oct-16 22:54N 21°06' E 110°31'0 0.0
2017-Oct-16 22:24N 21°06' E 110°31'0 0.0
2017-Oct-16 22:00N 21°06' E 110°31'0 0.1
2017-Oct-16 21:27N 21°06' E 110°31'0 0.0
2017-Oct-16 20:57N 21°06' E 110°31'0 0.1
2017-Oct-16 20:30N 21°06' E 110°31'0 0.0
2017-Oct-16 20:00N 21°06' E 110°31'0 0.0
2017-Oct-16 19:30N 21°06' E 110°31'0 0.0
2017-Oct-16 18:57N 21°06' E 110°31'0 0.0
2017-Oct-16 18:24N 21°06' E 110°31'0 0.0
2017-Oct-16 18:00N 21°06' E 110°31'0 0.0
2017-Oct-16 17:27N 21°06' E 110°31'0 0.0
2017-Oct-16 17:00N 21°06' E 110°31'0 0.0
2017-Oct-16 16:30N 21°06' E 110°31'0 0.0
2017-Oct-16 16:00N 21°06' E 110°31'0 0.0
2017-Oct-16 15:30N 21°06' E 110°31'0 0.0
2017-Oct-16 15:00N 21°06' E 110°31'0 0.0
2017-Oct-16 14:30N 21°06' E 110°31'0 0.0
2017-Oct-16 13:27N 21°06' E 110°31'0 0.1
2017-Oct-16 12:54N 21°06' E 110°31'0 0.1
2017-Oct-16 12:15N 21°06' E 110°31'0 0.0
2017-Oct-16 11:57N 21°06' E 110°31'0 0.0
2017-Oct-16 11:27N 21°06' E 110°31'0 0.1
2017-Oct-16 11:00N 21°06' E 110°31'0 0.0
2017-Oct-16 10:30N 21°06' E 110°31'0 0.0
2017-Oct-16 10:00N 21°06' E 110°31'0 0.0
2017-Oct-16 09:30N 21°06' E 110°31'0 0.0
2017-Oct-16 09:00N 21°06' E 110°31'0 0.0
2017-Oct-16 08:30N 21°06' E 110°31'0 0.0
2017-Oct-16 08:00N 21°06' E 110°31'0 0.1
2017-Oct-16 07:30N 21°06' E 110°31'0 0.0
2017-Oct-16 07:00N 21°06' E 110°31'0 0.1
2017-Oct-16 06:30N 21°06' E 110°31'0 0.2
2017-Oct-16 06:00N 21°06' E 110°31'0 0.1
2017-Oct-16 05:30N 21°06' E 110°31'0 0.1
2017-Oct-16 05:00N 21°06' E 110°31'0 0.0
2017-Oct-16 04:30N 21°06' E 110°31'0 0.0
2017-Oct-16 04:00N 21°06' E 110°31'0 0.1
2017-Oct-16 03:30N 21°06' E 110°31'0 0.1
2017-Oct-16 03:00N 21°06' E 110°31'0 0.0
2017-Oct-16 02:30N 21°06' E 110°31'0 0.0
2017-Oct-16 02:00N 21°06' E 110°31'0 0.0
2017-Oct-16 01:30N 21°06' E 110°31'0 0.1
2017-Oct-16 00:57N 21°06' E 110°31'0 0.0
2017-Oct-16 00:27N 21°06' E 110°31'0 0.0
2017-Oct-16 00:00N 21°06' E 110°31'0 0.0
2017-Oct-15 23:30N 21°06' E 110°31'0 0.0
2017-Oct-15 23:00N 21°06' E 110°31'0 0.1
2017-Oct-15 22:30N 21°06' E 110°31'0 0.1
2017-Oct-15 22:00N 21°06' E 110°31'0 0.0
2017-Oct-15 21:30N 21°06' E 110°31'0 0.0
2017-Oct-15 21:00N 21°06' E 110°31'0 0.1
2017-Oct-15 20:24N 21°06' E 110°31'0 0.0
2017-Oct-15 19:51N 21°06' E 110°31'0 0.1
2017-Oct-15 19:30N 21°06' E 110°31'0 0.1
2017-Oct-15 18:45N 21°06' E 110°31'0 0.0
2017-Oct-15 18:21N 21°06' E 110°31'0 0.0
2017-Oct-15 17:54N 21°06' E 110°31'0 0.0
2017-Oct-15 17:24N 21°06' E 110°31'0 0.0
2017-Oct-15 17:00N 21°06' E 110°31'0 0.1
2017-Oct-15 16:30N 21°06' E 110°31'0 0.0
2017-Oct-15 16:00N 21°06' E 110°31'0 0.0
2017-Oct-15 15:30N 21°06' E 110°31'0 0.0
2017-Oct-15 14:39N 21°06' E 110°31'0 0.0
2017-Oct-15 13:09N 21°06' E 110°31'0 0.0
2017-Oct-15 12:57N 21°06' E 110°31'0 0.0
2017-Oct-15 11:33N 21°06' E 110°31'0 0.1
2017-Oct-15 11:27N 21°06' E 110°31'0 0.0
2017-Oct-15 10:42N 21°06' E 110°31'0 0.0
2017-Oct-15 10:30N 21°06' E 110°31'0 0.0
2017-Oct-15 09:48N 21°06' E 110°31'0 0.0
2017-Oct-15 09:18N 21°06' E 110°31'0 0.2
2017-Oct-15 09:00N 21°06' E 110°31'0 0.1
2017-Oct-15 08:18N 21°06' E 110°31'0 0.0
2017-Oct-15 08:00N 21°06' E 110°31'0 0.0
2017-Oct-15 07:30N 21°06' E 110°31'0 0.0
2017-Oct-15 06:54N 21°06' E 110°31'0 0.0
2017-Oct-15 06:30N 21°06' E 110°31'0 0.0
2017-Oct-15 06:00N 21°06' E 110°31'0 0.0
2017-Oct-15 05:30N 21°06' E 110°31'0 0.1
2017-Oct-15 05:00N 21°06' E 110°31'0 0.0
2017-Oct-15 04:30N 21°06' E 110°31'0 0.0
2017-Oct-15 04:00N 21°06' E 110°31'0 0.0
2017-Oct-15 03:30N 21°06' E 110°31'0 0.0
2017-Oct-15 03:00N 21°06' E 110°31'0 0.0
2017-Oct-15 02:24N 21°06' E 110°31'0 0.0
2017-Oct-15 01:57N 21°06' E 110°31'0 0.0
2017-Oct-15 01:12N 21°06' E 110°31'0 0.2
2017-Oct-15 00:15N 21°06' E 110°31'0 0.0
2017-Oct-14 19:49N 21°06' E 110°31'0 0.0
2017-Oct-14 18:22N 21°06' E 110°31'0 0.0
2017-Oct-14 17:52N 21°06' E 110°31'0 0.0
2017-Oct-14 17:16N 21°06' E 110°31'0 0.0
2017-Oct-14 16:52N 21°06' E 110°31'0 0.0
2017-Oct-14 15:19N 21°06' E 110°31'0 0.0
2017-Oct-14 14:04N 21°06' E 110°31'0 0.1
2017-Oct-14 13:58N 21°06' E 110°31'0 0.0
2017-Oct-14 10:40N 21°06' E 110°31'0 0.0
2017-Oct-14 10:13N 21°06' E 110°31'0 0.0
2017-Oct-14 09:52N 21°06' E 110°31'0 0.0
2017-Oct-14 09:28N 21°06' E 110°31'0 0.1
2017-Oct-14 08:58N 21°06' E 110°31'0 0.1
2017-Oct-14 08:28N 21°06' E 110°31'0 0.0
2017-Oct-14 07:58N 21°06' E 110°31'0 0.0
2017-Oct-14 05:46N 21°06' E 110°31'0 0.2
2017-Oct-14 05:28N 21°06' E 110°31'0 0.2
2017-Oct-14 05:00N 21°06' E 110°31'0 0.4
2017-Oct-14 04:30N 21°06' E 110°31'1 2.4
2017-Oct-14 04:00N 21°05' E 110°32'4 7.1
2017-Oct-14 03:30N 21°03' E 110°36'  
Track history (hours):
 
Tides and Currents Weather Stations Pressure Air Temp Water Temp Dewpoint Dewpoint Depression Visibility Wind Speed Wind Dir Waves Ship Positions

Hao Rui 6

Last reported at 2017-Oct-21 16:17 UTC. Time now 2017-Oct-22 15:30 UTC.
Position N 22°17' E 114°57'.

Length 88 m; draft 4.7 m.

Type: Cargo ship. MMSI: 529625000.

Date/timePositionNaut miles runAvg speedWind from/ knotsBaromVisibWave heightAir tempDewpointWater temp
2017-Oct-21 16:17N 22°17' E 114°57'4 8.3
2017-Oct-21 15:51N 22°15' E 114°53'3 8.2
2017-Oct-21 15:30N 22°14' E 114°50'4 8.1
2017-Oct-21 15:00N 22°13' E 114°46'5 7.8
2017-Oct-21 14:17N 22°11' E 114°41'10 7.7
2017-Oct-21 13:00N 22°07' E 114°31'225 7.3
2017-Oct-20 06:07N 21°03' E 110°39'110.2
2017-Oct-20 06:00N 21°03' E 110°38'5 9.3
2017-Oct-20 05:30N 21°05' E 110°33'5 9.4
2017-Oct-20 04:59N 21°05' E 110°28'5 9.7
2017-Oct-20 04:30N 21°08' E 110°25'3 0.7
2017-Oct-20 00:34N 21°11' E 110°24'0 0.0
2017-Oct-19 23:28N 21°11' E 110°24'0 0.0
2017-Oct-19 22:58N 21°11' E 110°24'0 0.0
2017-Oct-19 21:01N 21°11' E 110°24'0 0.0
2017-Oct-19 20:43N 21°11' E 110°24'0 0.0
2017-Oct-19 20:22N 21°11' E 110°24'0 0.0
2017-Oct-19 19:58N 21°11' E 110°24'0 0.0
2017-Oct-19 19:25N 21°11' E 110°24'0 0.0
2017-Oct-19 18:58N 21°11' E 110°24'0 0.0
2017-Oct-19 17:10N 21°11' E 110°24'0 0.0
2017-Oct-19 16:46N 21°11' E 110°24'0 0.0
2017-Oct-19 16:16N 21°11' E 110°24'0 0.0
2017-Oct-19 15:52N 21°11' E 110°24'0 0.0
2017-Oct-19 00:49N 21°11' E 110°24'0 0.2
2017-Oct-19 00:30N 21°11' E 110°24'1 2.6
2017-Oct-19 00:00N 21°09' E 110°25'5 9.1
2017-Oct-18 23:30N 21°05' E 110°27'3 6.0
2017-Oct-18 22:58N 21°05' E 110°30'1 0.4
2017-Oct-18 21:36N 21°06' E 110°31'0 0.0
2017-Oct-18 20:51N 21°06' E 110°31'0 0.1
2017-Oct-18 19:53N 21°06' E 110°31'0 0.0
2017-Oct-18 19:12N 21°06' E 110°31'0 0.0
2017-Oct-18 19:00N 21°06' E 110°31'0 0.0
2017-Oct-18 18:30N 21°06' E 110°31'0 0.0
2017-Oct-18 18:00N 21°06' E 110°31'0 0.0
2017-Oct-18 17:30N 21°06' E 110°31'0 0.0
2017-Oct-18 17:00N 21°06' E 110°31'0 0.0
2017-Oct-18 16:27N 21°06' E 110°31'0 0.0
2017-Oct-18 15:57N 21°06' E 110°31'0 0.0
2017-Oct-18 15:30N 21°06' E 110°31'0 0.0
2017-Oct-18 15:00N 21°06' E 110°31'0 0.1
2017-Oct-18 13:48N 21°06' E 110°31'0 0.0
2017-Oct-18 13:27N 21°06' E 110°31'0 0.0
2017-Oct-18 13:00N 21°06' E 110°31'0 0.0
2017-Oct-18 12:30N 21°06' E 110°31'0 0.0
2017-Oct-18 00:03N 21°06' E 110°31'0 0.0
2017-Oct-18 00:00N 21°06' E 110°31'0 0.0
2017-Oct-17 23:30N 21°06' E 110°31'0 0.0
2017-Oct-17 23:00N 21°06' E 110°31'0 0.0
2017-Oct-17 21:36N 21°06' E 110°31'0 0.1
2017-Oct-17 21:09N 21°06' E 110°31'0 0.1
2017-Oct-17 20:42N 21°06' E 110°31'0 0.0
2017-Oct-17 18:27N 21°06' E 110°31'0 0.1
2017-Oct-17 18:00N 21°06' E 110°31'0 0.0
2017-Oct-17 17:30N 21°06' E 110°31'0 0.0
2017-Oct-17 16:54N 21°06' E 110°31'0 0.0
2017-Oct-17 16:30N 21°06' E 110°31'0 0.0
2017-Oct-17 16:00N 21°06' E 110°31'0 0.0
2017-Oct-17 15:12N 21°06' E 110°31'0 0.0
2017-Oct-17 14:54N 21°06' E 110°31'0 0.0
2017-Oct-17 10:39N 21°06' E 110°31'0 0.0
2017-Oct-17 10:24N 21°06' E 110°31'0 0.0
2017-Oct-17 06:18N 21°06' E 110°31'0 0.0
2017-Oct-17 04:48N 21°06' E 110°31'0 0.0
2017-Oct-17 04:30N 21°06' E 110°31'0 0.0
2017-Oct-17 03:57N 21°06' E 110°31'0 0.0
2017-Oct-17 03:12N 21°06' E 110°31'0 0.0
2017-Oct-17 03:00N 21°06' E 110°31'0 0.0
2017-Oct-17 02:30N 21°06' E 110°31'0 0.0
2017-Oct-17 02:00N 21°06' E 110°31'0 0.0
2017-Oct-17 01:30N 21°06' E 110°31'0 0.1
2017-Oct-17 01:00N 21°06' E 110°31'0 0.0
2017-Oct-17 00:30N 21°06' E 110°31'0 0.0
2017-Oct-17 00:00N 21°06' E 110°31'0 0.0
2017-Oct-16 23:30N 21°06' E 110°31'0 0.0
2017-Oct-16 22:54N 21°06' E 110°31'0 0.0
2017-Oct-16 22:24N 21°06' E 110°31'0 0.0
2017-Oct-16 22:00N 21°06' E 110°31'0 0.1
2017-Oct-16 21:27N 21°06' E 110°31'0 0.0
2017-Oct-16 20:57N 21°06' E 110°31'0 0.1
2017-Oct-16 20:30N 21°06' E 110°31'0 0.0
2017-Oct-16 20:00N 21°06' E 110°31'0 0.0
2017-Oct-16 19:30N 21°06' E 110°31'0 0.0
2017-Oct-16 18:57N 21°06' E 110°31'0 0.0
2017-Oct-16 18:24N 21°06' E 110°31'0 0.0
2017-Oct-16 18:00N 21°06' E 110°31'0 0.0
2017-Oct-16 17:27N 21°06' E 110°31'0 0.0
2017-Oct-16 17:00N 21°06' E 110°31'0 0.0
2017-Oct-16 16:30N 21°06' E 110°31'0 0.0
2017-Oct-16 16:00N 21°06' E 110°31'0 0.0
2017-Oct-16 15:30N 21°06' E 110°31'0 0.0
2017-Oct-16 15:00N 21°06' E 110°31'0 0.0
2017-Oct-16 14:30N 21°06' E 110°31'0 0.0
2017-Oct-16 13:27N 21°06' E 110°31'0 0.1
2017-Oct-16 12:54N 21°06' E 110°31'0 0.1
2017-Oct-16 12:15N 21°06' E 110°31'0 0.0
2017-Oct-16 11:57N 21°06' E 110°31'0 0.0
2017-Oct-16 11:27N 21°06' E 110°31'0 0.1
2017-Oct-16 11:00N 21°06' E 110°31'0 0.0
2017-Oct-16 10:30N 21°06' E 110°31'0 0.0
2017-Oct-16 10:00N 21°06' E 110°31'0 0.0
2017-Oct-16 09:30N 21°06' E 110°31'0 0.0
2017-Oct-16 09:00N 21°06' E 110°31'0 0.0
2017-Oct-16 08:30N 21°06' E 110°31'0 0.0
2017-Oct-16 08:00N 21°06' E 110°31'0 0.1
2017-Oct-16 07:30N 21°06' E 110°31'0 0.0
2017-Oct-16 07:00N 21°06' E 110°31'0 0.1
2017-Oct-16 06:30N 21°06' E 110°31'0 0.2
2017-Oct-16 06:00N 21°06' E 110°31'0 0.1
2017-Oct-16 05:30N 21°06' E 110°31'0 0.1
2017-Oct-16 05:00N 21°06' E 110°31'0 0.0
2017-Oct-16 04:30N 21°06' E 110°31'0 0.0
2017-Oct-16 04:00N 21°06' E 110°31'0 0.1
2017-Oct-16 03:30N 21°06' E 110°31'0 0.1
2017-Oct-16 03:00N 21°06' E 110°31'0 0.0
2017-Oct-16 02:30N 21°06' E 110°31'0 0.0
2017-Oct-16 02:00N 21°06' E 110°31'0 0.0
2017-Oct-16 01:30N 21°06' E 110°31'0 0.1
2017-Oct-16 00:57N 21°06' E 110°31'0 0.0
2017-Oct-16 00:27N 21°06' E 110°31'0 0.0
2017-Oct-16 00:00N 21°06' E 110°31'0 0.0
2017-Oct-15 23:30N 21°06' E 110°31'0 0.0
2017-Oct-15 23:00N 21°06' E 110°31'0 0.1
2017-Oct-15 22:30N 21°06' E 110°31'0 0.1
2017-Oct-15 22:00N 21°06' E 110°31'0 0.0
2017-Oct-15 21:30N 21°06' E 110°31'0 0.0
2017-Oct-15 21:00N 21°06' E 110°31'0 0.1
2017-Oct-15 20:24N 21°06' E 110°31'0 0.0
2017-Oct-15 19:51N 21°06' E 110°31'0 0.1
2017-Oct-15 19:30N 21°06' E 110°31'0 0.1
2017-Oct-15 18:45N 21°06' E 110°31'0 0.0
2017-Oct-15 18:21N 21°06' E 110°31'0 0.0
2017-Oct-15 17:54N 21°06' E 110°31'0 0.0
2017-Oct-15 17:24N 21°06' E 110°31'0 0.0
2017-Oct-15 17:00N 21°06' E 110°31'0 0.1
2017-Oct-15 16:30N 21°06' E 110°31'0 0.0
2017-Oct-15 16:00N 21°06' E 110°31'0 0.0
2017-Oct-15 15:30N 21°06' E 110°31'0 0.0
2017-Oct-15 14:39N 21°06' E 110°31'0 0.0
2017-Oct-15 13:09N 21°06' E 110°31'0 0.0
2017-Oct-15 12:57N 21°06' E 110°31'0 0.0
2017-Oct-15 11:33N 21°06' E 110°31'0 0.1
2017-Oct-15 11:27N 21°06' E 110°31'0 0.0
2017-Oct-15 10:42N 21°06' E 110°31'0 0.0
2017-Oct-15 10:30N 21°06' E 110°31'0 0.0
2017-Oct-15 09:48N 21°06' E 110°31'0 0.0
2017-Oct-15 09:18N 21°06' E 110°31'0 0.2
2017-Oct-15 09:00N 21°06' E 110°31'0 0.1
2017-Oct-15 08:18N 21°06' E 110°31'0 0.0
2017-Oct-15 08:00N 21°06' E 110°31'0 0.0
2017-Oct-15 07:30N 21°06' E 110°31'0 0.0
2017-Oct-15 06:54N 21°06' E 110°31'0 0.0
2017-Oct-15 06:30N 21°06' E 110°31'0 0.0
2017-Oct-15 06:00N 21°06' E 110°31'0 0.0
2017-Oct-15 05:30N 21°06' E 110°31'0 0.1
2017-Oct-15 05:00N 21°06' E 110°31'0 0.0
2017-Oct-15 04:30N 21°06' E 110°31'0 0.0
2017-Oct-15 04:00N 21°06' E 110°31'0 0.0
2017-Oct-15 03:30N 21°06' E 110°31'0 0.0
2017-Oct-15 03:00N 21°06' E 110°31'0 0.0
2017-Oct-15 02:24N 21°06' E 110°31'0 0.0
2017-Oct-15 01:57N 21°06' E 110°31'0 0.0
2017-Oct-15 01:12N 21°06' E 110°31'0 0.2
2017-Oct-15 00:15N 21°06' E 110°31'0 0.0
2017-Oct-14 19:49N 21°06' E 110°31'0 0.0
2017-Oct-14 18:22N 21°06' E 110°31'0 0.0
2017-Oct-14 17:52N 21°06' E 110°31'0 0.0
2017-Oct-14 17:16N 21°06' E 110°31'0 0.0
2017-Oct-14 16:52N 21°06' E 110°31'0 0.0
2017-Oct-14 15:19N 21°06' E 110°31'0 0.0
2017-Oct-14 14:04N 21°06' E 110°31'0 0.1
2017-Oct-14 13:58N 21°06' E 110°31'0 0.0
2017-Oct-14 10:40N 21°06' E 110°31'0 0.0
2017-Oct-14 10:13N 21°06' E 110°31'0 0.0
2017-Oct-14 09:52N 21°06' E 110°31'0 0.0
2017-Oct-14 09:28N 21°06' E 110°31'0 0.1
2017-Oct-14 08:58N 21°06' E 110°31'0 0.1
2017-Oct-14 08:28N 21°06' E 110°31'0 0.0
2017-Oct-14 07:58N 21°06' E 110°31'0 0.0
2017-Oct-14 05:46N 21°06' E 110°31'0 0.2
2017-Oct-14 05:28N 21°06' E 110°31'0 0.2
2017-Oct-14 05:00N 21°06' E 110°31'0 0.4
2017-Oct-14 04:30N 21°06' E 110°31'1 2.4
2017-Oct-14 04:00N 21°05' E 110°32'4 7.1
2017-Oct-14 03:30N 21°03' E 110°36'  

Dump ship's entire track history